Bayou Metro, Arkansas
Current Conditions -  °F | °C
As of 2:58 AM on Sunday 23 Nov 2014 (Local Time) from KLRF Reporting Station
Light Rain Light Rain  
Wind Chill: 58°   Ceiling: 1600
Heat Index: 58°   Visibility: 10mi
Dew Point: 53°   Wind: 8mph
Humidity: 83%   Direction: 140°SE
Pressure: 29.73"   Gusts: NA
Location:  34.7557°N, 91.9476°W
Report Text: KLRF 230858Z AUTO 14007KT 10SM -RA BKN016 OVC039 14/12 A2973 RMK AO2 RAB0842 CIG 016V039 SLP069 P0000 60000 T01430115 57043
Loading
Personal Weather Stations






























Interactive Weather Map New forecast layout! Learn more

10-Day Weather Forecast

Advertisements
Track Severe Weather on mobile